KBLI/BLI METAR and TAF weather

Enter ICAO airport designator
Station Type Date Time Source
KBLI METAR 2019/08/19 21:53 UTC NOAA

KBLI 192153Z 19008KT 10SM CLR 22/11 A3003 RMK AO2 SLP175 T02170106


Station Type Date Time Source
KBLI Decoded METAR 2019/08/19 21:53 UTC NOAA

BELLINGHAM INTERNATIONAL AIRPORT, WA, United States (KBLI) 48-48N 122-32W 50M
Aug 19, 2019 - 05:53 PM EDT / 2019.08.19 2153 UTC
Wind: from the S (190 degrees) at 9 MPH (8 KT):0
Visibility: 10 mile(s):0
Sky conditions: clear
Temperature: 71.1 F (21.7 C)
Dew Point: 51.1 F (10.6 C)
Relative Humidity: 49%
Pressure (altimeter): 30.03 in. Hg (1016 hPa)
ob: KBLI 192153Z 19008KT 10SM CLR 22/11 A3003 RMK AO2 SLP175 T02170106
cycle: 22

Station Type Date Time Source
KBLI TAF 2019/08/19 18:36 UTC NOAA

TAF
AMD KBLI 191733Z 1918/2018 18008KT P6SM BKN035
FM192000 18008KT P6SM SCT035
FM200000 18005KT P6SM SKC

Example: see airport list